createdAt,value
2023-10-06T00:02:30.385Z,6.15
2023-10-06T00:05:00.083Z,5.53
2023-10-06T00:07:28.781Z,5.65
2023-10-06T00:09:57.630Z,6.18
2023-10-06T00:12:27.732Z,5.25
2023-10-06T00:14:59.481Z,5.43
2023-10-06T00:17:34.982Z,5.22
2023-10-06T00:20:08.220Z,5.07
2023-10-06T00:22:39.021Z,5.85
2023-10-06T00:25:13.126Z,6.18
2023-10-06T00:27:41.568Z,6.72
2023-10-06T00:30:13.007Z,4.88
2023-10-06T00:32:43.640Z,5.32
2023-10-06T00:35:13.258Z,5.60
2023-10-06T00:37:42.338Z,5.82
2023-10-06T00:40:20.386Z,5.43
2023-10-06T00:42:53.113Z,5.45
2023-10-06T00:45:23.345Z,6.18
2023-10-06T00:47:54.714Z,5.75
2023-10-06T00:50:25.293Z,5.38
2023-10-06T00:52:54.983Z,5.72
2023-10-06T00:55:23.856Z,5.30
2023-10-06T00:57:54.400Z,5.50
2023-10-06T01:00:23.380Z,5.30
2023-10-06T01:02:53.374Z,6.32
2023-10-06T01:05:22.440Z,7.07
2023-10-06T01:07:51.447Z,6.25
2023-10-06T01:10:28.885Z,6.57
2023-10-06T01:12:58.462Z,8.15
2023-10-06T01:15:30.932Z,7.05
2023-10-06T01:18:07.508Z,7.70
2023-10-06T01:20:41.643Z,6.43
2023-10-06T01:23:20.916Z,6.07
2023-10-06T01:25:54.722Z,5.35
2023-10-06T01:28:24.331Z,6.28
2023-10-06T01:30:53.363Z,9.20
2023-10-06T01:33:22.182Z,7.20
2023-10-06T01:35:50.865Z,6.73
2023-10-06T01:38:23.827Z,6.40
2023-10-06T01:40:54.466Z,7.03
2023-10-06T01:43:30.994Z,5.78
2023-10-06T01:46:00.971Z,6.90
2023-10-06T01:48:31.626Z,6.27
2023-10-06T01:51:00.534Z,6.85
2023-10-06T01:53:34.753Z,7.10
2023-10-06T01:56:08.406Z,7.63
2023-10-06T01:58:38.516Z,7.70
2023-10-06T02:01:10.266Z,7.20
2023-10-06T02:03:41.293Z,7.28
2023-10-06T02:06:17.686Z,6.45
2023-10-06T02:08:53.744Z,6.32
2023-10-06T02:11:29.082Z,7.18
2023-10-06T02:13:57.526Z,6.72
2023-10-06T02:16:27.621Z,6.78
2023-10-06T02:18:56.402Z,6.95
2023-10-06T02:21:26.500Z,7.03
2023-10-06T02:24:01.248Z,7.32
2023-10-06T02:26:30.012Z,6.22
2023-10-06T02:28:58.635Z,6.78
2023-10-06T02:31:29.006Z,6.97
2023-10-06T02:33:57.533Z,6.20
2023-10-06T02:36:26.197Z,6.90
2023-10-06T02:38:56.034Z,6.32
2023-10-06T02:41:27.362Z,6.95
2023-10-06T02:43:58.849Z,6.95
2023-10-06T02:46:27.753Z,6.13
2023-10-06T02:48:56.531Z,6.45
2023-10-06T02:51:48.467Z,6.22
2023-10-06T02:54:28.870Z,6.03
2023-10-06T02:56:57.707Z,6.57
2023-10-06T02:59:26.612Z,7.45
2023-10-06T03:01:58.662Z,8.38
2023-10-06T03:04:28.687Z,7.65
2023-10-06T03:07:00.848Z,9.85
2023-10-06T03:09:38.107Z,9.93
2023-10-06T03:12:15.596Z,10.10
2023-10-06T03:14:45.279Z,11.07
2023-10-06T03:17:15.364Z,10.30
2023-10-06T03:19:45.143Z,10.87
2023-10-06T03:22:15.172Z,11.43
2023-10-06T03:24:59.204Z,11.00
2023-10-06T03:27:30.088Z,9.75
2023-10-06T03:30:09.086Z,10.18
2023-10-06T03:32:40.669Z,9.45
2023-10-06T03:35:22.751Z,8.32
2023-10-06T03:38:09.062Z,7.78
2023-10-06T03:40:47.243Z,7.60
2023-10-06T03:43:16.183Z,7.63
2023-10-06T03:45:48.832Z,8.05
2023-10-06T03:48:20.729Z,8.27
2023-10-06T03:50:50.053Z,8.68
2023-10-06T03:53:18.907Z,9.05
2023-10-06T03:55:48.783Z,9.30
2023-10-06T03:58:19.256Z,9.63
2023-10-06T04:00:51.021Z,10.82
2023-10-06T04:03:20.778Z,10.90
2023-10-06T04:05:50.675Z,10.25
2023-10-06T04:08:22.365Z,9.60
2023-10-06T04:10:56.001Z,9.80
2023-10-06T04:13:25.068Z,9.43
2023-10-06T04:15:54.438Z,8.73
2023-10-06T04:18:25.461Z,8.55
2023-10-06T04:20:55.820Z,9.02
2023-10-06T04:23:25.149Z,9.35
2023-10-06T04:25:57.769Z,9.98
2023-10-06T04:28:29.579Z,9.73
2023-10-06T04:31:02.488Z,8.15
2023-10-06T04:33:31.464Z,6.25
2023-10-06T04:36:08.644Z,6.63
2023-10-06T04:38:40.127Z,5.63
2023-10-06T04:41:11.456Z,6.05
2023-10-06T04:43:45.556Z,5.32
2023-10-06T04:46:15.001Z,5.25
2023-10-06T04:48:43.767Z,5.65
2023-10-06T04:51:12.199Z,5.22
2023-10-06T04:53:41.067Z,4.78
2023-10-06T04:56:10.924Z,5.22
2023-10-06T04:58:40.670Z,5.38
2023-10-06T05:01:10.058Z,5.25
2023-10-06T05:03:45.590Z,5.68
2023-10-06T05:06:18.241Z,5.43
2023-10-06T05:08:49.182Z,6.10
2023-10-06T05:11:20.821Z,7.13
2023-10-06T05:13:50.978Z,6.00
2023-10-06T05:16:20.959Z,7.07
2023-10-06T05:18:49.917Z,5.57
2023-10-06T05:21:20.320Z,5.80
2023-10-06T05:23:49.682Z,7.07
2023-10-06T05:26:22.261Z,6.60
2023-10-06T05:28:52.776Z,6.55
2023-10-06T05:31:21.564Z,7.20
2023-10-06T05:33:52.556Z,6.68
2023-10-06T05:36:21.687Z,6.95
2023-10-06T05:38:50.879Z,6.97
2023-10-06T05:41:20.918Z,7.18
2023-10-06T05:43:50.086Z,7.43
2023-10-06T05:46:18.693Z,7.07
2023-10-06T05:48:47.464Z,7.40
2023-10-06T05:51:22.434Z,7.20
2023-10-06T05:53:53.228Z,9.00
2023-10-06T05:56:24.658Z,8.50
2023-10-06T05:58:53.405Z,8.20
2023-10-06T06:01:22.286Z,8.68
2023-10-06T06:03:52.742Z,7.50
2023-10-06T06:06:25.731Z,7.95
2023-10-06T06:08:57.107Z,6.78
2023-10-06T06:11:29.031Z,7.45
2023-10-06T06:14:14.880Z,7.20
2023-10-06T06:16:45.819Z,8.23
2023-10-06T06:19:14.722Z,8.18
2023-10-06T06:21:43.394Z,9.10
2023-10-06T06:24:12.091Z,8.38
2023-10-06T06:26:41.831Z,8.68
2023-10-06T06:29:11.072Z,8.52
2023-10-06T06:31:39.927Z,8.68
2023-10-06T06:34:08.609Z,8.60
2023-10-06T06:36:37.074Z,10.00
2023-10-06T06:39:11.065Z,9.75
2023-10-06T06:41:40.899Z,8.85
2023-10-06T06:44:10.001Z,9.27
2023-10-06T06:46:39.709Z,9.20
2023-10-06T06:49:08.710Z,8.20
2023-10-06T06:51:38.925Z,9.77
2023-10-06T06:54:08.510Z,8.63
2023-10-06T06:56:36.975Z,8.18
2023-10-06T06:59:08.935Z,8.18
2023-10-06T07:01:40.201Z,8.38
2023-10-06T07:04:09.140Z,8.52
2023-10-06T07:06:37.691Z,8.00
2023-10-06T07:09:13.964Z,8.70
2023-10-06T07:11:43.615Z,7.93
2023-10-06T07:14:15.701Z,8.13
2023-10-06T07:16:44.734Z,8.57
2023-10-06T07:19:15.761Z,8.75
2023-10-06T07:21:44.900Z,9.00
2023-10-06T07:24:14.759Z,8.20
2023-10-06T07:26:44.808Z,7.43
2023-10-06T07:29:15.393Z,7.13
2023-10-06T07:31:44.488Z,7.13
2023-10-06T07:34:13.925Z,5.65
2023-10-06T07:36:43.723Z,6.97
2023-10-06T07:39:21.624Z,5.78
2023-10-06T07:41:50.204Z,5.72
2023-10-06T07:44:22.071Z,6.25
2023-10-06T07:46:53.598Z,5.28
2023-10-06T07:49:22.837Z,5.57
2023-10-06T07:51:51.159Z,4.78
2023-10-06T07:54:19.847Z,6.03
2023-10-06T07:56:48.677Z,6.35
2023-10-06T07:59:17.358Z,5.18
2023-10-06T08:01:47.229Z,5.93
2023-10-06T08:04:15.934Z,6.38
2023-10-06T08:06:45.527Z,6.28
2023-10-06T08:09:14.272Z,6.57
2023-10-06T08:11:44.562Z,6.90
2023-10-06T08:14:14.614Z,6.28
2023-10-06T08:16:46.939Z,6.18
2023-10-06T08:19:17.490Z,5.85
2023-10-06T08:21:46.132Z,6.13
2023-10-06T08:24:14.845Z,5.85
2023-10-06T08:26:43.979Z,6.38
2023-10-06T08:29:15.654Z,6.25
2023-10-06T08:31:44.305Z,6.57
2023-10-06T08:34:13.179Z,6.35
2023-10-06T08:36:44.192Z,6.85
2023-10-06T08:39:14.656Z,5.95
2023-10-06T08:41:47.087Z,6.32
2023-10-06T08:44:18.005Z,6.50
2023-10-06T08:46:49.246Z,6.25
2023-10-06T08:49:20.447Z,6.50
2023-10-06T08:51:52.748Z,5.95
2023-10-06T08:54:22.831Z,6.68
2023-10-06T08:56:51.640Z,7.00
2023-10-06T08:59:21.599Z,6.20
2023-10-06T09:01:50.326Z,6.50
2023-10-06T09:04:20.851Z,6.20
2023-10-06T09:07:13.391Z,6.95
2023-10-06T09:09:44.113Z,6.97
2023-10-06T09:12:24.261Z,7.07
2023-10-06T09:14:55.595Z,7.20
2023-10-06T09:17:34.915Z,6.18
2023-10-06T09:20:13.524Z,6.68
2023-10-06T09:22:51.252Z,6.75
2023-10-06T09:25:22.415Z,7.05
2023-10-06T09:27:50.800Z,8.25
2023-10-06T09:30:21.580Z,7.32
2023-10-06T09:32:52.178Z,7.63
2023-10-06T09:35:21.908Z,7.93
2023-10-06T09:37:55.782Z,8.35
2023-10-06T09:40:24.650Z,8.68
2023-10-06T09:42:55.257Z,8.77
2023-10-06T09:45:25.960Z,7.65
2023-10-06T09:47:57.801Z,8.95
2023-10-06T09:50:27.705Z,7.85
2023-10-06T09:53:04.577Z,8.20
2023-10-06T09:55:33.627Z,7.45
2023-10-06T09:58:02.462Z,8.10
2023-10-06T10:00:32.212Z,8.18
2023-10-06T10:03:01.032Z,8.10
2023-10-06T10:05:30.940Z,8.23
2023-10-06T10:08:02.543Z,8.25
2023-10-06T10:10:34.460Z,7.88
2023-10-06T10:13:21.216Z,8.05
2023-10-06T10:16:05.149Z,8.30
2023-10-06T10:18:39.441Z,9.23
2023-10-06T10:21:12.963Z,8.70
2023-10-06T10:23:45.626Z,9.43
2023-10-06T10:26:23.462Z,9.05
2023-10-06T10:29:29.686Z,10.20
2023-10-06T10:32:08.734Z,9.00
2023-10-06T10:34:57.168Z,9.25
2023-10-06T10:37:27.339Z,9.25
2023-10-06T10:39:57.134Z,8.80
2023-10-06T10:42:39.552Z,11.77
2023-10-06T10:45:32.602Z,10.60
2023-10-06T10:48:01.698Z,10.35
2023-10-06T10:50:46.011Z,10.63
2023-10-06T10:53:15.920Z,11.68
2023-10-06T10:55:46.743Z,10.70
2023-10-06T10:58:55.648Z,11.50
2023-10-06T11:01:34.347Z,11.77
2023-10-06T11:04:36.855Z,11.68
2023-10-06T11:07:12.868Z,12.82
2023-10-06T11:09:42.794Z,12.30
2023-10-06T11:12:26.774Z,11.18
2023-10-06T11:15:04.086Z,11.13
2023-10-06T11:17:34.646Z,10.63
2023-10-06T11:20:14.614Z,10.85
2023-10-06T11:22:54.530Z,10.20
2023-10-06T11:25:28.602Z,10.88
2023-10-06T11:28:01.672Z,9.27
2023-10-06T11:30:32.267Z,9.93
2023-10-06T11:33:03.569Z,8.93
2023-10-06T11:35:34.329Z,8.38
2023-10-06T11:38:04.913Z,9.15
2023-10-06T11:40:36.117Z,7.78
2023-10-06T11:43:16.248Z,8.60
2023-10-06T11:45:45.985Z,9.10
2023-10-06T11:48:30.303Z,7.93
2023-10-06T11:51:07.394Z,7.68
2023-10-06T11:53:37.809Z,7.70
2023-10-06T11:56:08.448Z,8.13
2023-10-06T11:58:40.499Z,7.30
2023-10-06T12:01:28.764Z,8.25
2023-10-06T12:04:01.076Z,7.00
2023-10-06T12:06:39.320Z,7.38
2023-10-06T12:09:14.032Z,8.15
2023-10-06T12:11:43.159Z,7.85
2023-10-06T12:14:13.380Z,7.18
2023-10-06T12:16:45.924Z,7.00
2023-10-06T12:19:34.236Z,6.53
2023-10-06T12:22:06.420Z,6.78
2023-10-06T12:24:34.809Z,7.05
2023-10-06T12:27:03.946Z,6.25
2023-10-06T12:29:33.864Z,6.07
2023-10-06T12:32:05.339Z,5.90
2023-10-06T12:34:34.514Z,5.90
2023-10-06T12:37:04.210Z,5.20
2023-10-06T12:39:35.493Z,5.40
2023-10-06T12:42:06.257Z,5.55
2023-10-06T12:44:41.139Z,5.18
2023-10-06T12:47:12.244Z,5.72
2023-10-06T12:49:44.494Z,6.20
2023-10-06T12:52:13.075Z,4.85
2023-10-06T12:54:42.222Z,4.97
2023-10-06T12:57:10.886Z,4.80
2023-10-06T12:59:40.644Z,5.22
2023-10-06T13:02:10.924Z,5.10
2023-10-06T13:04:39.678Z,4.70
2023-10-06T13:07:08.458Z,4.43
2023-10-06T13:09:40.751Z,3.75
2023-10-06T13:12:10.141Z,4.70
2023-10-06T13:14:40.092Z,4.68
2023-10-06T13:17:09.341Z,3.92
2023-10-06T13:19:38.096Z,4.18
2023-10-06T13:22:07.507Z,3.72
2023-10-06T13:24:37.118Z,4.85
2023-10-06T13:27:09.640Z,4.72
2023-10-06T13:29:39.190Z,3.45
2023-10-06T13:32:12.437Z,4.38
2023-10-06T13:34:43.743Z,4.55
2023-10-06T13:37:15.332Z,4.22
2023-10-06T13:39:45.827Z,4.00
2023-10-06T13:42:16.573Z,4.22
2023-10-06T13:44:45.781Z,4.25
2023-10-06T13:47:15.890Z,4.63
2023-10-06T13:49:44.285Z,4.10
2023-10-06T13:52:13.026Z,4.15
2023-10-06T13:54:42.678Z,3.80
2023-10-06T13:57:11.502Z,4.13
2023-10-06T13:59:43.668Z,4.70
2023-10-06T14:02:14.162Z,4.15
2023-10-06T14:04:43.943Z,3.60
2023-10-06T14:07:13.213Z,4.68
2023-10-06T14:09:41.714Z,5.40
2023-10-06T14:12:14.974Z,4.80
2023-10-06T14:15:04.465Z,4.78
2023-10-06T14:17:35.723Z,4.03
2023-10-06T14:20:11.943Z,4.80
2023-10-06T14:22:50.382Z,4.15
2023-10-06T14:25:22.304Z,4.05
2023-10-06T14:27:51.583Z,4.30
2023-10-06T14:30:21.991Z,4.07
2023-10-06T14:33:08.884Z,4.00
2023-10-06T14:36:00.940Z,4.28
2023-10-06T14:38:48.503Z,4.18
2023-10-06T14:41:36.264Z,4.20
2023-10-06T14:44:23.065Z,4.07
2023-10-06T14:46:53.259Z,4.30
2023-10-06T14:49:27.817Z,4.35
2023-10-06T14:51:58.951Z,4.32
2023-10-06T14:54:31.620Z,4.60
2023-10-06T14:57:01.307Z,4.07
2023-10-06T14:59:33.066Z,4.20
2023-10-06T15:02:07.537Z,3.70
2023-10-06T15:04:36.693Z,3.40
2023-10-06T15:07:06.642Z,4.28
2023-10-06T15:09:36.512Z,3.83
2023-10-06T15:12:07.990Z,3.83
2023-10-06T15:14:38.020Z,4.10
2023-10-06T15:17:10.857Z,3.40
2023-10-06T15:19:39.741Z,3.10
2023-10-06T15:22:10.643Z,3.85
2023-10-06T15:24:41.236Z,3.58
2023-10-06T15:27:09.922Z,3.35
2023-10-06T15:29:38.777Z,3.50
2023-10-06T15:32:07.433Z,3.35
2023-10-06T15:34:37.371Z,3.58
2023-10-06T15:37:06.734Z,3.28
2023-10-06T15:39:37.601Z,3.92
2023-10-06T15:42:06.566Z,3.50
2023-10-06T15:44:35.362Z,4.13
2023-10-06T15:47:03.920Z,3.72
2023-10-06T15:49:33.550Z,3.17
2023-10-06T15:52:01.915Z,3.13
2023-10-06T15:54:31.472Z,3.92
2023-10-06T15:57:01.378Z,3.75
2023-10-06T15:59:31.233Z,3.67
2023-10-06T16:02:00.646Z,3.92
2023-10-06T16:04:29.656Z,3.80
2023-10-06T16:06:59.673Z,4.45
2023-10-06T16:09:28.825Z,4.70
2023-10-06T16:11:58.596Z,4.10
2023-10-06T16:14:29.657Z,4.55
2023-10-06T16:16:58.576Z,4.20
2023-10-06T16:19:27.373Z,4.20
2023-10-06T16:21:56.587Z,4.60
2023-10-06T16:24:25.329Z,4.28
2023-10-06T16:26:53.847Z,4.18
2023-10-06T16:29:23.414Z,3.70
2023-10-06T16:31:53.484Z,4.95
2023-10-06T16:34:22.271Z,4.28
2023-10-06T16:36:50.595Z,4.20
2023-10-06T16:39:22.647Z,4.80
2023-10-06T16:41:51.799Z,4.53
2023-10-06T16:44:21.988Z,4.93
2023-10-06T16:46:51.966Z,4.80
2023-10-06T16:49:20.502Z,5.03
2023-10-06T16:51:49.213Z,4.50
2023-10-06T16:54:18.227Z,4.75
2023-10-06T16:56:47.333Z,4.05
2023-10-06T16:59:16.082Z,3.95
2023-10-06T17:01:44.711Z,4.47
2023-10-06T17:04:16.652Z,4.30
2023-10-06T17:06:46.802Z,4.40
2023-10-06T17:09:19.906Z,4.68
2023-10-06T17:11:49.348Z,4.80
2023-10-06T17:14:18.264Z,5.03
2023-10-06T17:16:46.878Z,5.38
2023-10-06T17:19:17.503Z,4.45
2023-10-06T17:21:45.937Z,5.07
2023-10-06T17:24:15.022Z,4.40
2023-10-06T17:26:44.214Z,4.35
2023-10-06T17:29:13.823Z,4.65
2023-10-06T17:31:45.398Z,4.25
2023-10-06T17:34:18.915Z,4.28
2023-10-06T17:36:51.144Z,4.28
2023-10-06T17:39:26.206Z,4.13
2023-10-06T17:41:54.629Z,4.50
2023-10-06T17:44:23.496Z,3.70
2023-10-06T17:46:51.821Z,4.40
2023-10-06T17:49:20.826Z,4.78
2023-10-06T17:51:50.618Z,4.75
2023-10-06T17:54:19.927Z,6.68
2023-10-06T17:56:48.391Z,4.47
2023-10-06T17:59:17.316Z,5.07
2023-10-06T18:01:45.867Z,4.45
2023-10-06T18:04:14.841Z,4.38
2023-10-06T18:06:43.333Z,4.47
2023-10-06T18:09:14.615Z,4.53
2023-10-06T18:11:48.933Z,4.47
2023-10-06T18:14:32.332Z,5.47
2023-10-06T18:17:00.754Z,5.68
2023-10-06T18:19:29.902Z,4.43
2023-10-06T18:21:58.362Z,5.25
2023-10-06T18:24:29.137Z,4.57
2023-10-06T18:26:57.820Z,4.60
2023-10-06T18:29:26.629Z,4.95
2023-10-06T18:31:57.224Z,5.18
2023-10-06T18:34:26.114Z,3.90
2023-10-06T18:36:54.659Z,4.70
2023-10-06T18:39:25.740Z,4.43
2023-10-06T18:41:55.495Z,4.78
2023-10-06T18:44:25.289Z,5.60
2023-10-06T18:46:53.821Z,4.75
2023-10-06T18:49:22.565Z,5.28
2023-10-06T18:51:52.072Z,4.50
2023-10-06T18:54:22.817Z,5.05
2023-10-06T18:56:51.292Z,4.72
2023-10-06T18:59:21.413Z,4.53
2023-10-06T19:01:50.058Z,4.68
2023-10-06T19:04:18.848Z,3.97
2023-10-06T19:06:48.010Z,4.50
2023-10-06T19:09:17.692Z,4.05
2023-10-06T19:11:46.081Z,4.53
2023-10-06T19:14:15.950Z,4.18
2023-10-06T19:16:45.854Z,4.13
2023-10-06T19:19:14.570Z,4.53
2023-10-06T19:21:43.093Z,5.05
2023-10-06T19:24:11.981Z,4.50
2023-10-06T19:26:40.909Z,4.55
2023-10-06T19:29:10.010Z,4.53
2023-10-06T19:31:40.129Z,5.25
2023-10-06T19:34:10.358Z,5.15
2023-10-06T19:36:40.275Z,4.18
2023-10-06T19:39:10.195Z,4.85
2023-10-06T19:41:39.716Z,9.82
2023-10-06T19:44:08.595Z,6.20
2023-10-06T19:46:37.150Z,5.15
2023-10-06T19:49:05.980Z,5.15
2023-10-06T19:51:35.873Z,4.82
2023-10-06T19:54:04.937Z,4.70
2023-10-06T19:56:33.622Z,4.35
2023-10-06T19:59:03.451Z,4.90
2023-10-06T20:01:32.012Z,5.55
2023-10-06T20:04:00.909Z,4.88
2023-10-06T20:06:29.849Z,4.32
2023-10-06T20:08:59.861Z,4.72
2023-10-06T20:11:28.448Z,5.15
2023-10-06T20:13:57.269Z,4.80
2023-10-06T20:16:25.882Z,4.60
2023-10-06T20:18:54.738Z,3.95
2023-10-06T20:21:23.348Z,4.30
2023-10-06T20:23:52.491Z,4.43
2023-10-06T20:26:22.455Z,3.92
2023-10-06T20:28:51.243Z,4.20
2023-10-06T20:31:19.861Z,4.68
2023-10-06T20:33:48.689Z,4.65
2023-10-06T20:36:17.384Z,4.40
2023-10-06T20:38:46.132Z,4.47
2023-10-06T20:41:14.554Z,4.30
2023-10-06T20:43:44.730Z,4.35
2023-10-06T20:46:15.572Z,4.10
2023-10-06T20:48:44.465Z,4.43
2023-10-06T20:51:17.236Z,4.32
2023-10-06T20:53:46.300Z,4.15
2023-10-06T20:56:15.117Z,3.90
2023-10-06T20:58:45.695Z,4.00
2023-10-06T21:01:15.498Z,4.07
2023-10-06T21:03:44.478Z,3.55
2023-10-06T21:06:13.621Z,4.05
2023-10-06T21:08:42.445Z,4.70
2023-10-06T21:11:12.829Z,4.55
2023-10-06T21:13:41.740Z,5.45
2023-10-06T21:16:11.648Z,4.63
2023-10-06T21:18:40.484Z,4.57
2023-10-06T21:21:08.916Z,5.03
2023-10-06T21:23:38.019Z,5.80
2023-10-06T21:26:06.497Z,4.45
2023-10-06T21:28:35.832Z,3.97
2023-10-06T21:31:06.218Z,4.53
2023-10-06T21:33:36.923Z,4.28
2023-10-06T21:36:06.584Z,4.43
2023-10-06T21:38:36.133Z,4.90
2023-10-06T21:41:04.812Z,3.85
2023-10-06T21:43:33.729Z,3.85
2023-10-06T21:46:04.124Z,4.20
2023-10-06T21:48:36.542Z,3.50
2023-10-06T21:51:07.548Z,3.85
2023-10-06T21:53:36.452Z,4.25
2023-10-06T21:56:11.931Z,3.47
2023-10-06T21:58:40.922Z,3.70
2023-10-06T22:01:14.715Z,3.88
2023-10-06T22:03:46.417Z,3.03
2023-10-06T22:06:15.336Z,3.22
2023-10-06T22:08:44.009Z,3.60
2023-10-06T22:11:13.015Z,3.63
2023-10-06T22:13:43.925Z,3.92
2023-10-06T22:16:13.778Z,4.38
2023-10-06T22:18:44.564Z,3.85
2023-10-06T22:21:13.500Z,3.65
2023-10-06T22:23:43.053Z,4.07
2023-10-06T22:26:12.378Z,4.20
2023-10-06T22:28:41.333Z,3.65
2023-10-06T22:31:10.542Z,5.05
2023-10-06T22:33:41.096Z,5.93
2023-10-06T22:36:13.647Z,4.45
2023-10-06T22:38:42.489Z,3.60
2023-10-06T22:41:11.315Z,4.32
2023-10-06T22:43:42.011Z,3.72
2023-10-06T22:46:10.578Z,4.03
2023-10-06T22:48:40.152Z,3.42
2023-10-06T22:51:10.113Z,3.10
2023-10-06T22:53:40.517Z,4.15
2023-10-06T22:56:09.447Z,3.60
2023-10-06T22:58:38.389Z,3.63
2023-10-06T23:01:07.017Z,4.13
2023-10-06T23:03:36.933Z,3.88
2023-10-06T23:06:06.356Z,3.05
2023-10-06T23:08:38.117Z,3.55
2023-10-06T23:11:06.732Z,3.22
2023-10-06T23:13:36.144Z,3.45
2023-10-06T23:16:05.647Z,4.13
2023-10-06T23:18:38.829Z,3.30
2023-10-06T23:21:08.037Z,3.22
2023-10-06T23:23:39.059Z,3.63
2023-10-06T23:26:09.543Z,3.38
2023-10-06T23:28:40.257Z,3.70
2023-10-06T23:31:09.440Z,3.45
2023-10-06T23:33:40.061Z,4.15
2023-10-06T23:36:08.797Z,3.30
2023-10-06T23:38:38.767Z,3.90
2023-10-06T23:41:12.337Z,2.97
2023-10-06T23:43:42.289Z,3.38
2023-10-06T23:46:16.068Z,2.97
2023-10-06T23:48:47.643Z,3.38
2023-10-06T23:51:17.254Z,3.03
2023-10-06T23:53:47.578Z,3.17
2023-10-06T23:56:26.188Z,3.80
2023-10-06T23:58:55.207Z,3.30
